createdAt,value
2022-09-05T00:00:11.954Z,83.09
2022-09-05T00:01:08.722Z,83.09
2022-09-05T00:02:08.749Z,82.81
2022-09-05T00:03:08.873Z,82.90
2022-09-05T00:04:24.433Z,82.90
2022-09-05T00:05:08.832Z,83.09
2022-09-05T00:06:08.864Z,83.86
2022-09-05T00:07:08.886Z,84.06
2022-09-05T00:08:08.964Z,83.67
2022-09-05T00:09:08.951Z,83.58
2022-09-05T00:10:08.975Z,83.86
2022-09-05T00:11:41.447Z,83.39
2022-09-05T00:12:09.029Z,83.53
2022-09-05T00:13:09.059Z,83.58
2022-09-05T00:14:09.088Z,83.63
2022-09-05T00:15:17.324Z,83.86
2022-09-05T00:16:09.202Z,83.44
2022-09-05T00:17:09.172Z,83.63
2022-09-05T00:20:00.115Z,83.67
2022-09-05T00:24:22.749Z,83.48
2022-09-05T00:24:26.770Z,83.96
2022-09-05T00:24:29.051Z,83.48
2022-09-05T00:24:29.933Z,84.06
2022-09-05T00:24:33.159Z,83.58
2022-09-05T00:24:45.726Z,83.44
2022-09-05T00:25:37.414Z,82.90
2022-09-05T00:26:09.419Z,83.19
2022-09-05T00:27:09.446Z,83.19
2022-09-05T00:28:25.638Z,83.19
2022-09-05T00:29:09.501Z,83.39
2022-09-05T00:31:08.796Z,83.48
2022-09-05T00:31:54.635Z,83.09
2022-09-05T00:32:09.620Z,83.19
2022-09-05T00:33:16.279Z,83.25
2022-09-05T00:34:09.642Z,82.96
2022-09-05T00:35:09.670Z,83.44
2022-09-05T00:36:09.701Z,83.39
2022-09-05T00:37:09.748Z,83.29
2022-09-05T00:38:09.751Z,83.00
2022-09-05T00:39:09.782Z,82.71
2022-09-05T00:40:17.568Z,83.09
2022-09-05T00:41:09.836Z,83.39
2022-09-05T00:42:09.866Z,83.09
2022-09-05T00:43:09.888Z,83.48
2022-09-05T00:44:09.921Z,83.19
2022-09-05T00:45:14.509Z,83.15
2022-09-05T00:46:10.035Z,83.19
2022-09-05T00:47:10.006Z,83.09
2022-09-05T00:48:10.031Z,83.00
2022-09-05T00:49:10.084Z,83.25
2022-09-05T00:50:10.085Z,83.00
2022-09-05T00:51:10.111Z,82.96
2022-09-05T00:52:10.139Z,82.96
2022-09-05T00:53:10.171Z,82.96
2022-09-05T00:54:10.196Z,82.81
2022-09-05T00:55:10.225Z,82.81
2022-09-05T00:56:10.250Z,82.90
2022-09-05T00:57:10.282Z,83.00
2022-09-05T00:58:10.307Z,82.86
2022-09-05T00:59:10.335Z,83.25
2022-09-05T01:00:14.980Z,83.25
2022-09-05T01:01:20.963Z,82.96
2022-09-05T01:02:10.482Z,83.25
2022-09-05T01:03:10.765Z,83.34
2022-09-05T01:04:10.475Z,82.96
2022-09-05T01:05:10.500Z,83.34
2022-09-05T01:06:10.545Z,83.15
2022-09-05T01:07:10.555Z,82.96
2022-09-05T01:08:10.590Z,83.06
2022-09-05T01:09:10.643Z,83.06
2022-09-05T01:10:10.638Z,82.96
2022-09-05T01:11:10.667Z,83.44
2022-09-05T01:12:10.693Z,82.76
2022-09-05T01:13:10.724Z,82.67
2022-09-05T01:14:12.940Z,82.90
2022-09-05T01:15:10.774Z,83.09
2022-09-05T01:16:10.884Z,83.15
2022-09-05T01:17:10.831Z,82.76
2022-09-05T01:18:10.862Z,82.76
2022-09-05T01:19:10.889Z,83.15
2022-09-05T01:20:19.199Z,83.06
2022-09-05T01:21:10.944Z,83.34
2022-09-05T01:22:10.975Z,83.06
2022-09-05T01:23:11.003Z,83.06
2022-09-05T01:24:11.027Z,82.86
2022-09-05T01:25:11.053Z,82.96
2022-09-05T01:26:11.090Z,83.06
2022-09-05T01:27:12.171Z,83.15
2022-09-05T01:28:30.885Z,83.15
2022-09-05T01:29:18.507Z,83.15
2022-09-05T01:30:11.191Z,82.86
2022-09-05T01:31:11.294Z,82.86
2022-09-05T01:32:11.252Z,82.96
2022-09-05T01:33:11.274Z,82.96
2022-09-05T01:34:11.385Z,82.86
2022-09-05T01:35:11.329Z,82.96
2022-09-05T01:36:11.358Z,83.34
2022-09-05T01:37:32.694Z,83.34
2022-09-05T01:38:11.412Z,83.83
2022-09-05T01:39:58.097Z,83.44
2022-09-05T01:40:15.330Z,83.44
2022-09-05T01:41:19.223Z,83.63
2022-09-05T01:42:11.525Z,83.63
2022-09-05T01:43:11.550Z,83.53
2022-09-05T01:44:11.577Z,83.63
2022-09-05T01:45:11.606Z,83.63
2022-09-05T01:46:11.924Z,83.83
2022-09-05T01:47:11.661Z,83.34
2022-09-05T01:48:11.692Z,83.44
2022-09-05T01:49:11.719Z,83.53
2022-09-05T01:50:11.745Z,83.73
2022-09-05T01:51:28.375Z,83.44
2022-09-05T01:52:11.801Z,84.01
2022-09-05T01:53:11.836Z,83.92
2022-09-05T01:54:26.245Z,83.63
2022-09-05T01:55:11.879Z,83.25
2022-09-05T01:56:11.907Z,83.63
2022-09-05T01:57:11.935Z,83.63
2022-09-05T01:58:11.970Z,83.92
2022-09-05T01:59:11.992Z,83.63
2022-09-05T02:00:12.021Z,83.92
2022-09-05T02:01:25.113Z,83.73
2022-09-05T02:02:12.207Z,83.63
2022-09-05T02:03:12.128Z,84.01
2022-09-05T02:04:12.148Z,83.53
2022-09-05T02:05:12.158Z,83.34
2022-09-05T02:06:12.201Z,83.53
2022-09-05T02:07:19.257Z,83.34
2022-09-05T02:08:12.242Z,83.92
2022-09-05T02:09:12.266Z,84.30
2022-09-05T02:10:12.297Z,84.59
2022-09-05T02:11:12.321Z,84.50
2022-09-05T02:12:12.347Z,84.55
2022-09-05T02:13:12.377Z,84.59
2022-09-05T02:14:12.407Z,84.88
2022-09-05T02:15:12.432Z,84.55
2022-09-05T02:16:12.506Z,85.03
2022-09-05T02:17:27.242Z,84.74
2022-09-05T02:18:12.514Z,84.84
2022-09-05T02:19:12.539Z,84.74
2022-09-05T02:20:12.573Z,84.84
2022-09-05T02:21:12.596Z,85.03
2022-09-05T02:22:12.620Z,84.36
2022-09-05T02:23:31.060Z,84.26
2022-09-05T02:24:12.678Z,84.84
2022-09-05T02:26:00.189Z,84.84
2022-09-05T02:26:12.731Z,84.64
2022-09-05T02:27:12.766Z,85.22
2022-09-05T02:28:12.792Z,85.51
2022-09-05T02:29:12.814Z,85.32
2022-09-05T02:30:12.840Z,85.80
2022-09-05T02:31:20.078Z,85.95
2022-09-05T02:32:12.899Z,85.99
2022-09-05T02:33:12.924Z,85.75
2022-09-05T02:34:12.953Z,85.95
2022-09-05T02:35:13.880Z,85.66
2022-09-05T02:36:13.005Z,86.33
2022-09-05T02:37:13.033Z,86.05
2022-09-05T02:39:07.585Z,86.05
2022-09-05T02:45:01.360Z,86.24
2022-09-05T02:45:02.722Z,86.24
2022-09-05T02:45:12.202Z,86.14
2022-09-05T02:45:16.589Z,86.24
2022-09-05T02:45:18.999Z,86.24
2022-09-05T02:45:23.799Z,86.05
2022-09-05T02:45:25.720Z,86.52
2022-09-05T02:46:13.375Z,86.52
2022-09-05T02:47:13.379Z,86.43
2022-09-05T02:48:15.623Z,86.52
2022-09-05T02:49:41.862Z,86.43
2022-09-05T02:54:14.249Z,86.43
2022-09-05T02:57:25.072Z,86.52
2022-09-05T02:57:26.386Z,86.52
2022-09-05T02:57:28.840Z,86.43
2022-09-05T02:57:38.560Z,86.43
2022-09-05T02:57:39.464Z,86.43
2022-09-05T02:57:41.149Z,86.33
2022-09-05T02:58:04.531Z,86.43
2022-09-05T02:58:13.943Z,86.81
2022-09-05T02:59:13.627Z,86.62
2022-09-05T03:00:13.666Z,86.33
2022-09-05T03:01:13.743Z,86.52
2022-09-05T03:02:26.085Z,87.49
2022-09-05T03:03:13.797Z,87.01
2022-09-05T03:04:13.763Z,87.01
2022-09-05T03:05:13.788Z,87.10
2022-09-05T03:06:13.829Z,87.49
2022-09-05T03:07:13.838Z,87.58
2022-09-05T03:08:13.865Z,87.29
2022-09-05T03:09:17.265Z,87.19
2022-09-05T03:10:13.919Z,87.58
2022-09-05T03:11:13.955Z,87.19
2022-09-05T03:12:28.826Z,87.19
2022-09-05T03:13:13.998Z,87.54
2022-09-05T03:14:14.028Z,87.15
2022-09-05T03:15:22.579Z,86.87
2022-09-05T03:16:14.116Z,87.25
2022-09-05T03:17:14.107Z,87.35
2022-09-05T03:18:20.159Z,87.44
2022-09-05T03:19:14.166Z,87.35
2022-09-05T03:20:14.186Z,87.35
2022-09-05T03:21:14.217Z,87.63
2022-09-05T03:22:14.245Z,87.54
2022-09-05T03:23:14.269Z,87.54
2022-09-05T03:24:14.293Z,87.73
2022-09-05T03:25:14.322Z,87.54
2022-09-05T03:26:14.347Z,87.82
2022-09-05T03:27:14.374Z,87.63
2022-09-05T03:28:14.403Z,87.92
2022-09-05T03:29:14.430Z,88.11
2022-09-05T03:30:14.459Z,87.82
2022-09-05T03:31:22.128Z,88.02
2022-09-05T03:32:14.508Z,88.69
2022-09-05T03:33:14.546Z,88.40
2022-09-05T03:34:14.561Z,88.40
2022-09-05T03:35:14.590Z,88.40
2022-09-05T03:36:14.616Z,88.40
2022-09-05T03:37:14.644Z,88.40
2022-09-05T03:38:14.665Z,88.40
2022-09-05T03:39:14.700Z,88.49
2022-09-05T03:40:15.822Z,88.40
2022-09-05T03:41:14.749Z,88.79
2022-09-05T03:42:15.232Z,88.69
2022-09-05T03:43:14.802Z,88.45
2022-09-05T03:44:14.827Z,89.07
2022-09-05T03:45:14.856Z,88.98
2022-09-05T03:46:14.903Z,89.12
2022-09-05T03:47:14.906Z,88.55
2022-09-05T03:48:28.029Z,89.12
2022-09-05T03:50:37.258Z,89.41
2022-09-05T03:54:12.180Z,89.41
2022-09-05T03:57:07.291Z,89.61
2022-09-05T03:57:08.978Z,89.55
2022-09-05T03:57:11.960Z,89.70
2022-09-05T03:57:20.405Z,89.51
2022-09-05T03:57:21.025Z,89.32
2022-09-05T03:57:26.847Z,89.32
2022-09-05T03:57:32.540Z,89.22
2022-09-05T03:58:18.170Z,89.41
2022-09-05T03:59:15.227Z,89.70
2022-09-05T04:00:15.269Z,89.51
2022-09-05T04:04:10.827Z,89.61
2022-09-05T04:04:39.249Z,90.08
2022-09-05T04:08:08.353Z,89.89
2022-09-05T04:08:13.586Z,90.28
2022-09-05T04:08:17.423Z,90.56
2022-09-05T04:08:19.632Z,90.18
2022-09-05T04:08:28.551Z,89.89
2022-09-05T04:08:31.225Z,90.37
2022-09-05T04:09:26.704Z,91.05
2022-09-05T04:10:15.610Z,90.66
2022-09-05T04:11:15.545Z,90.37
2022-09-05T04:12:15.570Z,90.75
2022-09-05T04:13:15.599Z,90.75
2022-09-05T04:14:15.620Z,91.14
2022-09-05T04:15:15.654Z,91.14
2022-09-05T04:16:15.727Z,90.95
2022-09-05T04:17:15.701Z,91.05
2022-09-05T04:18:15.731Z,90.95
2022-09-05T04:19:15.753Z,91.05
2022-09-05T04:20:15.781Z,90.95
2022-09-05T04:21:15.806Z,90.95
2022-09-05T04:22:15.832Z,91.24
2022-09-05T04:23:15.907Z,91.52
2022-09-05T04:24:15.886Z,91.09
2022-09-05T04:25:15.913Z,91.09
2022-09-05T04:26:15.939Z,91.28
2022-09-05T04:27:15.970Z,92.15
2022-09-05T04:28:15.994Z,92.05
2022-09-05T04:29:16.021Z,91.67
2022-09-05T04:30:37.803Z,91.67
2022-09-05T04:31:16.100Z,91.57
2022-09-05T04:32:19.193Z,92.19
2022-09-05T04:33:16.151Z,92.15
2022-09-05T04:34:16.151Z,92.24
2022-09-05T04:35:16.179Z,92.24
2022-09-05T04:36:18.281Z,92.24
2022-09-05T04:37:16.227Z,92.44
2022-09-05T04:38:16.256Z,92.72
2022-09-05T04:39:16.283Z,92.72
2022-09-05T04:40:16.308Z,92.54
2022-09-05T04:41:16.338Z,92.82
2022-09-05T04:42:16.359Z,93.01
2022-09-05T04:43:16.386Z,92.82
2022-09-05T04:44:16.420Z,92.82
2022-09-05T04:45:17.886Z,93.21
2022-09-05T04:46:18.973Z,93.21
2022-09-05T04:47:16.493Z,92.82
2022-09-05T04:48:22.310Z,93.11
2022-09-05T04:49:16.580Z,93.21
2022-09-05T04:50:16.595Z,92.68
2022-09-05T04:51:16.603Z,92.58
2022-09-05T04:52:19.653Z,92.68
2022-09-05T04:53:16.652Z,92.19
2022-09-05T04:54:16.685Z,92.68
2022-09-05T04:55:16.704Z,92.00
2022-09-05T04:56:16.731Z,92.39
2022-09-05T04:57:16.764Z,92.48
2022-09-05T04:58:16.787Z,92.58
2022-09-05T05:05:07.661Z,92.10
2022-09-05T05:05:58.908Z,91.91
2022-09-05T05:05:59.680Z,92.00
2022-09-05T05:06:08.154Z,92.48
2022-09-05T05:06:08.226Z,92.19
2022-09-05T05:06:14.078Z,92.00
2022-09-05T05:06:18.518Z,92.29
2022-09-05T05:06:47.245Z,92.29
2022-09-05T05:07:17.105Z,92.00
2022-09-05T05:08:29.006Z,92.19
2022-09-05T05:09:17.074Z,92.48
2022-09-05T05:12:25.510Z,91.42
2022-09-05T05:17:55.336Z,92.29
2022-09-05T05:17:58.768Z,92.29
2022-09-05T05:18:01.115Z,91.42
2022-09-05T05:18:02.406Z,91.81
2022-09-05T05:18:08.140Z,91.96
2022-09-05T05:18:09.263Z,92.39
2022-09-05T05:18:15.329Z,91.72
2022-09-05T05:18:36.751Z,91.81
2022-09-05T05:19:21.657Z,91.19
2022-09-05T05:20:40.074Z,91.38
2022-09-05T05:21:17.390Z,91.28
2022-09-05T05:22:17.424Z,91.19
2022-09-05T05:23:17.445Z,91.19
2022-09-05T05:24:17.474Z,91.19
2022-09-05T05:25:17.496Z,91.47
2022-09-05T05:26:17.525Z,91.19
2022-09-05T05:27:17.555Z,90.99
2022-09-05T05:28:24.260Z,90.80
2022-09-05T05:29:19.745Z,90.90
2022-09-05T05:30:17.635Z,91.19
2022-09-05T05:31:17.699Z,91.19
2022-09-05T05:32:17.683Z,90.42
2022-09-05T05:33:24.880Z,90.52
2022-09-05T05:35:22.209Z,90.37
2022-09-05T05:36:21.757Z,90.17
2022-09-05T05:38:25.896Z,90.27
2022-09-05T05:39:25.858Z,89.98
2022-09-05T05:41:19.272Z,89.26
2022-09-05T05:42:20.536Z,89.60
2022-09-05T05:44:22.775Z,89.54
2022-09-05T05:45:22.795Z,89.12
2022-09-05T05:47:29.909Z,88.78
2022-09-05T05:48:26.831Z,88.68
2022-09-05T05:50:30.856Z,88.10
2022-09-05T05:51:34.580Z,88.06
2022-09-05T05:53:43.497Z,87.96
2022-09-05T05:54:34.915Z,87.29
2022-09-05T05:56:39.414Z,86.52
2022-09-05T05:57:38.960Z,86.52
2022-09-05T05:59:42.978Z,85.98
2022-09-05T06:00:43.000Z,85.98
2022-09-05T06:02:47.674Z,85.88
2022-09-05T06:03:47.175Z,85.78
2022-09-05T06:05:51.101Z,85.74
2022-09-05T06:06:51.115Z,85.44
2022-09-05T06:12:17.550Z,83.95
2022-09-05T06:14:54.741Z,83.12
2022-09-05T06:14:55.643Z,80.66
2022-09-05T06:14:58.708Z,81.20
2022-09-05T06:15:13.281Z,79.11
2022-09-05T06:16:06.664Z,78.77
2022-09-05T06:18:07.332Z,77.11
2022-09-05T06:19:07.319Z,76.82
2022-09-05T06:22:09.196Z,75.95
2022-09-05T06:22:11.351Z,76.05
2022-09-05T06:24:04.324Z,75.31
2022-09-05T06:25:07.719Z,74.29
2022-09-05T06:27:08.835Z,72.68
2022-09-05T06:28:18.693Z,72.10
2022-09-05T06:30:12.420Z,71.81
2022-09-05T06:31:31.350Z,72.00
2022-09-05T06:33:16.938Z,71.33
2022-09-05T06:34:27.237Z,71.94
2022-09-05T06:36:20.523Z,70.92
2022-09-05T06:37:20.544Z,70.43
2022-09-05T06:39:25.106Z,69.62
2022-09-05T06:40:24.595Z,70.53
2022-09-05T06:42:42.762Z,68.79
2022-09-05T06:43:28.648Z,69.08
2022-09-05T06:45:33.147Z,69.62
2022-09-05T06:46:54.743Z,70.65
2022-09-05T06:48:46.456Z,71.20
2022-09-05T06:49:39.371Z,72.26
2022-09-05T06:51:30.245Z,72.80
2022-09-05T06:52:30.318Z,72.52
2022-09-05T06:54:33.958Z,73.86
2022-09-05T06:55:33.987Z,74.25
2022-09-05T06:57:43.972Z,74.79
2022-09-05T06:58:38.041Z,74.41
2022-09-05T07:00:31.553Z,75.18
2022-09-05T07:01:52.447Z,74.89
2022-09-05T07:03:35.038Z,75.67
2022-09-05T07:05:23.367Z,75.57
2022-09-05T07:07:01.888Z,75.57
2022-09-05T07:07:43.749Z,75.57
2022-09-05T07:09:43.178Z,75.82
2022-09-05T07:10:43.192Z,76.20
2022-09-05T07:12:47.689Z,76.78
2022-09-05T07:13:47.262Z,77.07
2022-09-05T07:15:51.838Z,77.17
2022-09-05T07:16:51.863Z,76.98
2022-09-05T07:18:09.559Z,77.07
2022-09-05T07:18:51.865Z,77.17
2022-09-05T07:19:51.905Z,77.26
2022-09-05T07:21:15.792Z,76.98
2022-09-05T07:21:51.957Z,77.26
2022-09-05T07:22:51.984Z,76.50
2022-09-05T07:24:09.335Z,76.78
2022-09-05T07:24:54.349Z,77.26
2022-09-05T07:25:52.071Z,77.26
2022-09-05T07:26:54.627Z,77.17
2022-09-05T07:28:26.011Z,77.11
2022-09-05T07:28:52.161Z,77.69
2022-09-05T07:29:53.471Z,76.72
2022-09-05T07:30:52.217Z,77.01
2022-09-05T07:31:52.300Z,76.72
2022-09-05T07:32:52.281Z,76.63
2022-09-05T07:33:52.308Z,76.47
2022-09-05T07:34:52.338Z,76.57
2022-09-05T07:35:52.374Z,76.76
2022-09-05T07:37:13.772Z,76.12
2022-09-05T07:37:52.427Z,75.74
2022-09-05T07:39:06.999Z,75.54
2022-09-05T07:39:52.564Z,75.06
2022-09-05T07:40:52.520Z,74.48
2022-09-05T07:41:52.548Z,74.52
2022-09-05T07:43:08.806Z,74.23
2022-09-05T07:43:52.609Z,73.84
2022-09-05T07:44:52.641Z,73.97
2022-09-05T07:45:56.110Z,73.78
2022-09-05T07:46:52.698Z,73.78
2022-09-05T07:47:52.731Z,72.52
2022-09-05T07:48:52.760Z,73.01
2022-09-05T07:50:27.930Z,73.53
2022-09-05T07:53:24.432Z,73.14
2022-09-05T07:56:47.006Z,72.27
2022-09-05T07:57:01.959Z,71.88
2022-09-05T07:57:02.367Z,72.56
2022-09-05T07:57:03.982Z,72.02
2022-09-05T07:57:04.793Z,71.78
2022-09-05T07:57:26.980Z,71.72
2022-09-05T07:57:53.332Z,71.62
2022-09-05T07:58:53.063Z,72.05
2022-09-05T07:59:53.100Z,71.62
2022-09-05T08:00:53.185Z,71.37
2022-09-05T08:01:53.157Z,70.70
2022-09-05T08:02:54.995Z,71.08
2022-09-05T08:03:53.220Z,70.70
2022-09-05T08:04:53.343Z,70.70
2022-09-05T08:05:53.277Z,70.89
2022-09-05T08:07:46.468Z,70.60
2022-09-05T08:07:53.339Z,70.31
2022-09-05T08:09:21.720Z,70.44
2022-09-05T08:10:06.010Z,70.40
2022-09-05T08:11:23.278Z,69.27
2022-09-05T08:11:53.463Z,70.15
2022-09-05T08:13:23.909Z,68.99
2022-09-05T08:13:53.529Z,68.40
2022-09-05T08:14:53.558Z,68.40
2022-09-05T08:16:12.806Z,68.30
2022-09-05T08:16:53.695Z,68.12
2022-09-05T08:17:53.652Z,68.30
2022-09-05T08:18:53.685Z,68.12
2022-09-05T08:19:53.712Z,68.21
2022-09-05T08:20:53.748Z,67.92
2022-09-05T08:21:53.776Z,67.66
2022-09-05T08:22:53.807Z,68.24
2022-09-05T08:23:53.836Z,67.85
2022-09-05T08:24:53.874Z,67.85
2022-09-05T08:25:57.439Z,67.27
2022-09-05T08:26:53.934Z,67.27
2022-09-05T08:27:53.970Z,66.79
2022-09-05T08:28:53.992Z,66.99
2022-09-05T08:30:24.748Z,66.79
2022-09-05T08:30:54.054Z,66.60
2022-09-05T08:31:54.082Z,66.20
2022-09-05T08:32:54.118Z,66.44
2022-09-05T08:33:54.155Z,65.75
2022-09-05T08:34:54.181Z,66.34
2022-09-05T08:36:01.029Z,65.95
2022-09-05T08:36:54.247Z,65.56
2022-09-05T08:37:54.276Z,65.47
2022-09-05T08:38:54.303Z,65.47
2022-09-05T08:40:11.018Z,66.34
2022-09-05T08:40:54.371Z,65.47
2022-09-05T08:42:03.349Z,64.98
2022-09-05T08:46:04.562Z,65.85
2022-09-05T08:46:37.186Z,64.72
2022-09-05T08:46:43.801Z,64.82
2022-09-05T08:46:46.559Z,64.62
2022-09-05T08:46:55.058Z,64.82
2022-09-05T08:47:54.612Z,65.20
2022-09-05T08:48:54.622Z,64.04
2022-09-05T08:49:54.651Z,64.56
2022-09-05T08:50:54.682Z,64.85
2022-09-05T08:51:55.500Z,63.88
2022-09-05T08:52:54.751Z,63.98
2022-09-05T08:53:54.783Z,64.07
2022-09-05T08:55:04.349Z,63.29
2022-09-05T08:55:54.844Z,63.78
2022-09-05T08:56:54.875Z,63.39
2022-09-05T08:57:54.903Z,63.29
2022-09-05T08:59:32.483Z,62.74
2022-09-05T09:00:20.808Z,62.62
2022-09-05T09:00:59.005Z,62.74
2022-09-05T09:02:45.458Z,62.45
2022-09-05T09:02:55.197Z,62.26
2022-09-05T09:03:55.162Z,62.26
2022-09-05T09:05:02.511Z,61.68
2022-09-05T09:06:14.268Z,61.09
2022-09-05T09:07:47.722Z,60.80
2022-09-05T09:07:55.223Z,61.00
2022-09-05T09:08:55.260Z,60.31
2022-09-05T09:09:55.287Z,60.71
2022-09-05T09:10:55.319Z,61.12
2022-09-05T09:11:55.350Z,60.35
2022-09-05T09:12:55.386Z,60.35
2022-09-05T09:13:55.414Z,60.64
2022-09-05T09:14:55.447Z,60.25
2022-09-05T09:15:55.527Z,60.54
2022-09-05T09:16:55.517Z,60.15
2022-09-05T09:17:55.544Z,60.64
2022-09-05T09:18:55.580Z,59.01
2022-09-05T09:19:55.610Z,58.89
2022-09-05T09:20:55.641Z,58.82
2022-09-05T09:21:56.570Z,58.92
2022-09-05T09:22:55.707Z,58.53
2022-09-05T09:23:55.740Z,58.14
2022-09-05T09:25:14.334Z,58.62
2022-09-05T09:25:55.803Z,58.04
2022-09-05T09:26:55.835Z,58.82
2022-09-05T09:28:48.073Z,59.01
2022-09-05T09:28:55.898Z,58.82
2022-09-05T09:29:55.932Z,59.11
2022-09-05T09:30:57.504Z,57.75
2022-09-05T09:31:56.020Z,57.46
2022-09-05T09:32:59.352Z,58.43
2022-09-05T09:33:56.066Z,58.23
2022-09-05T09:34:56.299Z,58.62
2022-09-05T09:35:56.129Z,57.56
2022-09-05T09:36:56.157Z,57.97
2022-09-05T09:37:59.419Z,57.49
2022-09-05T09:38:56.226Z,57.78
2022-09-05T09:39:56.283Z,57.87
2022-09-05T09:41:00.900Z,57.59
2022-09-05T09:41:56.321Z,57.00
2022-09-05T09:42:56.356Z,56.64
2022-09-05T09:43:56.389Z,56.90
2022-09-05T09:44:56.576Z,56.15
2022-09-05T09:45:56.455Z,55.76
2022-09-05T09:46:56.530Z,55.66
2022-09-05T09:47:56.520Z,55.76
2022-09-05T09:48:56.554Z,55.37
2022-09-05T09:49:56.582Z,55.66
2022-09-05T09:50:58.897Z,54.82
2022-09-05T09:51:56.650Z,54.43
2022-09-05T09:52:56.683Z,53.94
2022-09-05T09:53:56.720Z,53.94
2022-09-05T09:54:56.748Z,52.58
2022-09-05T09:55:56.786Z,52.48
2022-09-05T09:56:56.817Z,52.48
2022-09-05T09:57:56.847Z,52.58
2022-09-05T09:58:56.881Z,51.61
2022-09-05T09:59:56.914Z,52.38
2022-09-05T10:00:56.950Z,52.87
2022-09-05T10:02:00.965Z,53.06
2022-09-05T10:08:51.087Z,51.31
2022-09-05T10:10:33.366Z,50.43
2022-09-05T10:10:38.733Z,50.92
2022-09-05T10:10:45.155Z,51.21
2022-09-05T10:10:46.657Z,50.43
2022-09-05T10:10:50.760Z,49.95
2022-09-05T10:10:53.991Z,51.21
2022-09-05T10:10:54.674Z,50.92
2022-09-05T10:11:40.151Z,49.27
2022-09-05T10:11:58.364Z,49.07
2022-09-05T10:13:08.775Z,49.76
2022-09-05T10:13:57.376Z,49.66
2022-09-05T10:14:58.373Z,49.95
2022-09-05T10:15:57.522Z,50.04
2022-09-05T10:16:57.475Z,50.34
2022-09-05T10:17:57.504Z,50.63
2022-09-05T10:18:57.544Z,51.21
2022-09-05T10:20:12.954Z,50.24
2022-09-05T10:21:16.382Z,49.88
2022-09-05T10:22:57.671Z,49.95
2022-09-05T10:23:57.709Z,49.56
2022-09-05T10:24:57.737Z,49.85
2022-09-05T10:26:01.476Z,50.26
2022-09-05T10:26:57.805Z,50.26
2022-09-05T10:27:57.844Z,50.56
2022-09-05T10:28:57.927Z,50.07
2022-09-05T10:29:57.902Z,50.38
2022-09-05T10:32:25.997Z,50.38
2022-09-05T10:33:32.432Z,49.99
2022-09-05T10:35:10.838Z,49.99
2022-09-05T10:35:14.642Z,47.17
2022-09-05T10:35:15.024Z,49.32
2022-09-05T10:35:58.123Z,45.81
2022-09-05T10:36:58.137Z,45.81
2022-09-05T10:37:58.168Z,44.93
2022-09-05T10:38:58.204Z,45.42
2022-09-05T10:39:58.254Z,44.34
2022-09-05T10:41:20.811Z,44.54
2022-09-05T10:42:02.675Z,44.93
2022-09-05T10:43:00.423Z,45.22
2022-09-05T10:43:58.369Z,44.64
2022-09-05T10:44:58.407Z,44.64
2022-09-05T10:45:58.482Z,44.34
2022-09-05T10:46:58.495Z,44.44
2022-09-05T10:47:58.504Z,43.95
2022-09-05T10:48:58.534Z,44.54
2022-09-05T10:49:58.574Z,44.34
2022-09-05T10:50:58.601Z,44.34
2022-09-05T10:51:58.637Z,44.27
2022-09-05T10:52:58.670Z,43.98
2022-09-05T10:53:58.708Z,43.68
2022-09-05T10:55:13.917Z,43.10
2022-09-05T10:55:58.772Z,43.00
2022-09-05T10:56:58.801Z,42.98
2022-09-05T10:57:58.837Z,43.27
2022-09-05T11:01:37.569Z,42.49
2022-09-05T11:02:21.202Z,42.02
2022-09-05T11:02:28.640Z,41.63
2022-09-05T11:02:29.804Z,42.00
2022-09-05T11:02:59.023Z,42.20
2022-09-05T11:03:59.082Z,42.49
2022-09-05T11:04:59.105Z,42.40
2022-09-05T11:05:59.102Z,42.12
2022-09-05T11:06:59.140Z,41.52
2022-09-05T11:07:59.172Z,41.54
2022-09-05T11:08:59.210Z,41.61
2022-09-05T11:09:59.243Z,42.20
2022-09-05T11:10:59.272Z,42.49
2022-09-05T11:11:59.310Z,43.10
2022-09-05T11:12:59.341Z,42.80
2022-09-05T11:13:59.378Z,42.51
2022-09-05T11:14:59.407Z,42.54
2022-09-05T11:16:04.637Z,42.54
2022-09-05T11:16:59.476Z,42.44
2022-09-05T11:17:59.526Z,42.63
2022-09-05T11:18:59.546Z,42.54
2022-09-05T11:19:59.576Z,42.73
2022-09-05T11:20:59.614Z,42.46
2022-09-05T11:22:13.828Z,41.97
2022-09-05T11:22:59.675Z,41.67
2022-09-05T11:23:59.709Z,42.44
2022-09-05T11:24:59.752Z,42.73
2022-09-05T11:25:59.779Z,42.73
2022-09-05T11:27:24.366Z,43.32
2022-09-05T11:27:59.845Z,42.93
2022-09-05T11:29:01.043Z,43.02
2022-09-05T11:29:59.917Z,43.32
2022-09-05T11:31:00.010Z,42.83
2022-09-05T11:32:47.751Z,42.44
2022-09-05T11:38:20.308Z,41.75
2022-09-05T11:39:48.632Z,42.05
2022-09-05T11:39:54.370Z,42.05
2022-09-05T11:39:54.439Z,41.85
2022-09-05T11:39:58.441Z,42.24
2022-09-05T11:39:59.172Z,41.66
2022-09-05T11:39:59.173Z,42.05
2022-09-05T11:40:31.320Z,42.05
2022-09-05T11:41:08.323Z,42.63
2022-09-05T11:42:00.386Z,42.73
2022-09-05T11:43:00.355Z,42.73
2022-09-05T11:44:09.444Z,42.63
2022-09-05T11:45:00.425Z,42.93
2022-09-05T11:46:00.516Z,42.93
2022-09-05T11:47:27.068Z,42.83
2022-09-05T11:48:00.526Z,42.94
2022-09-05T11:49:00.560Z,43.24
2022-09-05T11:50:00.594Z,43.24
2022-09-05T11:51:00.631Z,42.26
2022-09-05T11:52:00.666Z,42.55
2022-09-05T11:53:00.699Z,42.07
2022-09-05T11:54:00.806Z,42.55
2022-09-05T11:55:00.769Z,42.68
2022-09-05T11:56:00.811Z,42.58
2022-09-05T11:57:21.662Z,42.48
2022-09-05T11:58:00.868Z,42.68
2022-09-05T11:59:04.778Z,42.11
2022-09-05T12:00:32.090Z,40.64
2022-09-05T12:01:41.037Z,40.63
2022-09-05T12:02:16.649Z,40.63
2022-09-05T12:03:01.039Z,41.42
2022-09-05T12:04:03.678Z,42.19
2022-09-05T12:05:47.790Z,41.72
2022-09-05T12:06:01.300Z,40.45
2022-09-05T12:07:01.174Z,40.74
2022-09-05T12:08:01.218Z,40.55
2022-09-05T12:09:01.246Z,39.76
2022-09-05T12:10:01.280Z,39.76
2022-09-05T12:12:01.351Z,38.20
2022-09-05T12:13:01.384Z,38.10
2022-09-05T12:14:01.689Z,38.40
2022-09-05T12:15:04.344Z,38.79
2022-09-05T12:16:08.414Z,39.20
2022-09-05T12:17:01.522Z,38.12
2022-09-05T12:18:01.558Z,38.04
2022-09-05T12:19:02.831Z,37.35
2022-09-05T12:20:01.625Z,36.96
2022-09-05T12:21:01.661Z,36.88
2022-09-05T12:22:08.848Z,36.79
2022-09-05T12:23:01.730Z,36.40
2022-09-05T12:25:15.462Z,36.30
2022-09-05T12:25:27.145Z,36.71
2022-09-05T12:27:36.760Z,36.32
2022-09-05T12:27:41.007Z,35.83
2022-09-05T12:29:26.037Z,35.44
2022-09-05T12:29:33.394Z,34.65
2022-09-05T12:30:02.343Z,34.84
2022-09-05T12:32:30.586Z,35.04
2022-09-05T12:33:39.419Z,35.73
2022-09-05T12:36:05.532Z,36.20
2022-09-05T12:36:06.439Z,35.93
2022-09-05T12:36:11.729Z,36.20
2022-09-05T12:40:05.158Z,35.22
2022-09-05T12:40:25.373Z,35.13
2022-09-05T12:40:45.070Z,36.30
2022-09-05T12:40:56.522Z,35.61
2022-09-05T12:41:42.464Z,36.30
2022-09-05T12:41:46.048Z,36.10
2022-09-05T12:42:10.594Z,38.59
2022-09-05T12:42:14.756Z,35.71
2022-09-05T12:44:38.151Z,35.91
2022-09-05T12:44:39.402Z,35.91
2022-09-05T12:45:02.731Z,36.02
2022-09-05T12:46:03.441Z,35.71
2022-09-05T12:47:16.678Z,35.71
2022-09-05T12:48:02.612Z,35.91
2022-09-05T12:49:06.829Z,36.20
2022-09-05T12:50:14.136Z,35.71
2022-09-05T12:51:02.733Z,35.61
2022-09-05T12:52:02.754Z,36.20
2022-09-05T12:53:02.789Z,35.91
2022-09-05T12:54:02.826Z,35.32
2022-09-05T12:55:02.860Z,35.03
2022-09-05T12:58:55.363Z,34.83
2022-09-05T13:02:20.074Z,35.42
2022-09-05T13:02:54.917Z,35.42
2022-09-05T13:02:56.752Z,35.13
2022-09-05T13:03:03.546Z,35.22
2022-09-05T13:03:08.456Z,34.54
2022-09-05T13:03:15.400Z,35.24
2022-09-05T13:03:29.240Z,34.84
2022-09-05T13:04:21.633Z,34.94
2022-09-05T13:05:03.389Z,34.06
2022-09-05T13:06:03.360Z,34.08
2022-09-05T13:07:03.284Z,33.98
2022-09-05T13:08:03.331Z,34.47
2022-09-05T13:09:03.357Z,33.79
2022-09-05T13:13:40.962Z,34.08
2022-09-05T13:14:50.775Z,33.31
2022-09-05T13:14:52.375Z,33.69
2022-09-05T13:14:58.325Z,34.28
2022-09-05T13:14:59.974Z,33.29
2022-09-05T13:15:21.954Z,33.89
2022-09-05T13:16:03.658Z,33.90
2022-09-05T13:17:03.642Z,33.31
2022-09-05T13:18:03.692Z,33.22
2022-09-05T13:19:03.715Z,34.10
2022-09-05T13:20:03.752Z,33.51
2022-09-05T13:21:03.781Z,33.90
2022-09-05T13:22:03.821Z,34.00
2022-09-05T13:23:03.854Z,33.80
2022-09-05T13:24:03.892Z,33.61
2022-09-05T13:25:03.939Z,33.31
2022-09-05T13:26:03.963Z,33.70
2022-09-05T13:27:04.004Z,34.30
2022-09-05T13:28:04.040Z,33.51
2022-09-05T13:29:10.290Z,33.43